Time;durP1;ratioP1;P1;durP2;ratioP2;P2;SDS_P1;SDS_P2;PMS_P1;PMS_P2;Temp;Humidity;BMP_temperature;BMP_pressure;BME280_temperature;BME280_humidity;BME280_pressure;Samples;Min_cycle;Max_cycle;Signal;HPM_P1;HPM_P2
2023/09/14 00:00:50;;;;;;;8.00;6.20;;;;;;;16.26;100.00;97034.00;5023992;28;20061;-68
2023/09/14 00:03:16;;;;;;;7.93;5.50;;;;;;;16.32;100.00;97031.59;5019924;28;20106;-67
2023/09/14 00:05:47;;;;;;;8.63;6.30;;;;;;;16.39;100.00;97034.38;5036403;28;20049;-67
2023/09/14 00:08:12;;;;;;;9.35;5.70;;;;;;;16.39;100.00;97037.91;5029021;28;20041;-67
2023/09/14 00:10:39;;;;;;;8.15;6.05;;;;;;;16.40;100.00;97030.41;5039321;28;20423;-67
2023/09/14 00:13:05;;;;;;;9.23;5.78;;;;;;;16.45;100.00;97030.00;5039461;28;20045;-68
2023/09/14 00:15:32;;;;;;;7.78;5.82;;;;;;;16.56;100.00;97027.22;5032891;28;20135;-67
2023/09/14 00:17:57;;;;;;;7.80;5.20;;;;;;;16.57;100.00;97032.34;5035227;28;20090;-67
2023/09/14 00:20:26;;;;;;;9.35;5.75;;;;;;;16.58;100.00;97028.41;5023620;28;20698;-67
2023/09/14 00:22:53;;;;;;;8.02;5.57;;;;;;;16.49;100.00;97033.53;5034895;28;20133;-67
2023/09/14 00:25:22;;;;;;;12.20;6.32;;;;;;;16.47;100.00;97033.16;5018180;28;20033;-67
2023/09/14 00:27:50;;;;;;;7.35;5.43;;;;;;;16.45;100.00;97027.22;5024504;28;20099;-66
2023/09/14 00:30:15;;;;;;;8.52;6.07;;;;;;;16.29;100.00;97029.63;5019111;28;20037;-67
2023/09/14 00:32:42;;;;;;;10.30;6.80;;;;;;;16.20;100.00;97030.81;5027503;28;20060;-67
2023/09/14 00:35:09;;;;;;;8.77;5.57;;;;;;;16.15;100.00;97036.75;5039781;28;20040;-66
2023/09/14 00:37:35;;;;;;;7.00;5.50;;;;;;;16.22;100.00;97035.94;5042188;28;20051;-66
2023/09/14 00:40:06;;;;;;;10.32;6.65;;;;;;;16.25;100.00;97033.19;5045532;28;20056;-66
2023/09/14 00:42:53;;;;;;;10.05;5.75;;;;;;;16.26;100.00;97039.50;5042308;28;20040;-67
2023/09/14 00:45:20;;;;;;;10.73;5.43;;;;;;;16.27;100.00;97032.78;5032610;28;20087;-66
2023/09/14 00:47:56;;;;;;;8.18;5.85;;;;;;;16.32;100.00;97029.63;5046379;28;20403;-67
2023/09/14 00:50:22;;;;;;;8.07;6.25;;;;;;;16.33;100.00;97036.75;5021027;28;20240;-67
2023/09/14 00:52:52;;;;;;;8.07;5.70;;;;;;;16.38;100.00;97033.56;5041907;28;20111;-67
2023/09/14 00:55:17;;;;;;;8.80;5.82;;;;;;;16.26;100.00;97039.50;5037756;28;20076;-67
2023/09/14 00:57:43;;;;;;;7.80;5.60;;;;;;;16.10;100.00;97033.56;5033577;28;20041;-67
2023/09/14 01:00:12;;;;;;;7.80;6.32;;;;;;;16.00;100.00;97029.63;5024626;28;20033;-67
2023/09/14 01:02:39;;;;;;;7.68;5.35;;;;;;;16.01;100.00;97026.47;5037680;28;20044;-67
2023/09/14 01:05:06;;;;;;;8.70;6.22;;;;;;;16.12;100.00;97031.22;5023526;28;20046;-67
2023/09/14 01:07:32;;;;;;;9.80;6.53;;;;;;;16.18;100.00;97030.41;5037779;28;20041;-67
2023/09/14 01:09:58;;;;;;;11.52;6.10;;;;;;;16.25;100.00;97032.41;5026362;28;20034;-67
2023/09/14 01:12:24;;;;;;;10.65;5.75;;;;;;;16.33;100.00;97028.44;5021141;28;20045;-67
2023/09/14 01:15:15;;;;;;;10.38;6.15;;;;;;;16.39;100.00;97032.38;5025448;28;20061;-68
2023/09/14 01:17:46;;;;;;;9.32;6.25;;;;;;;16.48;100.00;97031.97;5026287;28;20044;-67
2023/09/14 01:20:49;;;;;;;8.68;5.95;;;;;;;16.46;100.00;97037.13;5038067;28;20048;-68
2023/09/14 01:23:20;;;;;;;7.65;5.43;;;;;;;16.50;100.00;97032.38;5027682;28;20517;-68
2023/09/14 01:25:47;;;;;;;8.30;6.50;;;;;;;16.55;100.00;97028.41;5025677;28;20085;-68
2023/09/14 01:28:14;;;;;;;7.43;5.97;;;;;;;16.57;100.00;97037.88;5027868;28;20044;-68
2023/09/14 01:30:42;;;;;;;13.77;6.38;;;;;;;16.55;100.00;97033.94;5038505;28;20119;-68
2023/09/14 01:33:09;;;;;;;7.95;6.30;;;;;;;16.48;100.00;97031.19;5038715;28;20488;-66
2023/09/14 01:35:40;;;;;;;11.18;6.43;;;;;;;16.30;100.00;97028.47;5026256;28;20059;-69
2023/09/14 01:38:06;;;;;;;9.07;6.35;;;;;;;16.06;100.00;97036.34;5040916;28;20037;-69
2023/09/14 01:40:36;;;;;;;9.73;6.85;;;;;;;15.99;100.00;97034.38;5037668;28;20037;-69
2023/09/14 01:43:05;;;;;;;14.65;7.70;;;;;;;15.85;100.00;97029.63;5040959;28;20518;-70
2023/09/14 01:45:33;;;;;;;10.90;7.85;;;;;;;15.78;100.00;97026.84;5043488;28;20087;-68
2023/09/14 01:47:59;;;;;;;11.40;7.68;;;;;;;15.77;100.00;97030.81;5042667;28;20037;-68
2023/09/14 01:50:25;;;;;;;13.23;8.85;;;;;;;15.63;100.00;97026.03;5022480;28;20108;-66
2023/09/14 01:52:52;;;;;;;12.25;8.35;;;;;;;15.55;100.00;97023.66;5034695;28;20045;-68
2023/09/14 01:55:18;;;;;;;13.38;8.65;;;;;;;15.44;100.00;97021.63;5035433;28;20038;-68
2023/09/14 01:57:45;;;;;;;17.02;8.77;;;;;;;15.44;100.00;97024.41;5030112;28;20037;-68
2023/09/14 02:00:10;;;;;;;14.00;9.07;;;;;;;15.46;100.00;97027.56;5022074;28;20528;-68
2023/09/14 02:02:36;;;;;;;14.25;9.35;;;;;;;15.47;100.00;97020.88;5038181;28;20057;-68
2023/09/14 02:05:01;;;;;;;18.08;10.20;;;;;;;15.50;100.00;97022.03;5041773;28;20055;-67
2023/09/14 02:07:27;;;;;;;11.18;8.88;;;;;;;15.55;100.00;97023.66;5017579;28;20492;-67
2023/09/14 02:09:52;;;;;;;13.60;8.93;;;;;;;15.66;100.00;97016.97;5031176;28;20038;-67
2023/09/14 02:12:18;;;;;;;10.98;8.35;;;;;;;15.66;100.00;97025.25;5035635;28;20129;-67
2023/09/14 02:14:43;;;;;;;13.77;8.90;;;;;;;15.76;100.00;97032.00;5047268;28;20033;-68
2023/09/14 02:17:08;;;;;;;11.63;8.40;;;;;;;15.93;100.00;97029.63;5041158;28;20127;-67
2023/09/14 02:19:34;;;;;;;11.00;7.72;;;;;;;16.06;100.00;97030.81;5028765;28;20072;-66
2023/09/14 02:21:59;;;;;;;11.55;7.30;;;;;;;16.15;100.00;97025.69;5035860;28;20504;-67
2023/09/14 02:24:24;;;;;;;10.75;7.03;;;;;;;16.16;100.00;97023.72;5036481;28;20424;-66
2023/09/14 02:26:52;;;;;;;13.07;7.43;;;;;;;16.16;100.00;97018.97;5039492;28;20041;-68
2023/09/14 02:29:18;;;;;;;8.75;6.95;;;;;;;16.13;100.00;97028.03;5034187;28;20065;-66
2023/09/14 02:31:43;;;;;;;9.57;7.13;;;;;;;16.18;100.00;97024.09;5041555;28;20080;-65
2023/09/14 02:34:08;;;;;;;10.35;6.72;;;;;;;16.23;100.00;97030.03;5040696;28;20468;-66
2023/09/14 02:36:34;;;;;;;10.73;6.50;;;;;;;16.27;100.00;97026.47;5027229;28;20075;-68
2023/09/14 02:38:59;;;;;;;11.32;6.80;;;;;;;16.21;100.00;97026.09;5034705;28;20045;-68
2023/09/14 02:41:25;;;;;;;8.43;6.72;;;;;;;16.18;100.00;97032.41;5021619;28;20037;-68
2023/09/14 02:43:50;;;;;;;9.77;6.85;;;;;;;16.27;100.00;97035.53;5035412;28;20068;-68
2023/09/14 02:46:15;;;;;;;9.43;6.57;;;;;;;16.36;100.00;97027.63;5036558;28;20049;-68
2023/09/14 02:48:41;;;;;;;12.82;6.65;;;;;;;16.46;100.00;97036.31;5046252;28;20040;-68
2023/09/14 02:51:06;;;;;;;8.80;6.18;;;;;;;16.49;100.00;97032.75;5039613;28;20040;-66
2023/09/14 02:53:32;;;;;;;7.47;6.32;;;;;;;16.51;100.00;97024.84;5051151;28;20071;-66
2023/09/14 02:55:57;;;;;;;9.85;6.65;;;;;;;16.53;100.00;97033.53;5043622;28;20036;-67
2023/09/14 02:58:22;;;;;;;9.32;6.18;;;;;;;16.47;100.00;97024.84;5027397;28;20541;-66
2023/09/14 03:00:48;;;;;;;10.82;6.68;;;;;;;16.34;100.00;97030.00;5047727;28;20044;-66
2023/09/14 03:03:13;;;;;;;9.65;6.90;;;;;;;16.22;100.00;97022.94;5036216;28;20045;-68
2023/09/14 03:05:39;;;;;;;8.77;6.13;;;;;;;16.24;100.00;97033.56;5038359;28;20814;-67
2023/09/14 03:08:05;;;;;;;8.38;6.57;;;;;;;16.32;100.00;97032.38;5032483;28;20041;-68
2023/09/14 03:10:30;;;;;;;9.77;6.57;;;;;;;16.32;100.00;97029.63;5035006;28;20071;-67
2023/09/14 03:12:55;;;;;;;9.77;6.10;;;;;;;16.25;100.00;97038.69;5040831;28;20049;-68
2023/09/14 03:15:21;;;;;;;7.68;6.28;;;;;;;16.27;100.00;97029.25;5034793;28;20039;-67
2023/09/14 03:17:47;;;;;;;13.23;7.13;;;;;;;16.33;100.00;97041.47;5040216;28;20049;-67
2023/09/14 03:20:12;;;;;;;12.60;7.05;;;;;;;16.40;100.00;97031.22;5033726;28;20038;-67
2023/09/14 03:22:38;;;;;;;9.57;6.63;;;;;;;16.44;100.00;97037.50;5049059;28;20049;-67
2023/09/14 03:25:03;;;;;;;10.63;7.10;;;;;;;16.40;100.00;97033.16;5044418;28;20136;-67
2023/09/14 03:27:29;;;;;;;12.18;6.78;;;;;;;16.38;100.00;97041.84;5033136;28;20037;-67
2023/09/14 03:29:54;;;;;;;10.52;6.72;;;;;;;16.33;100.00;97033.97;5041354;28;20099;-67
2023/09/14 03:32:20;;;;;;;11.48;7.93;;;;;;;16.24;100.00;97039.91;5033412;28;20086;-67
2023/09/14 03:34:45;;;;;;;10.95;7.47;;;;;;;16.13;100.00;97049.38;5034289;28;20038;-67
2023/09/14 03:37:11;;;;;;;12.23;7.70;;;;;;;16.17;100.00;97036.34;5041721;28;20753;-67
2023/09/14 03:39:36;;;;;;;9.65;6.90;;;;;;;16.32;100.00;97035.16;5038659;28;20118;-68
2023/09/14 03:42:02;;;;;;;8.65;7.47;;;;;;;16.31;100.00;97035.53;5045033;28;20048;-67
2023/09/14 03:44:27;;;;;;;14.02;8.25;;;;;;;16.25;100.00;97049.75;5037325;28;20152;-67
2023/09/14 03:46:53;;;;;;;11.77;8.00;;;;;;;16.20;100.00;97050.16;5032617;28;20068;-67
2023/09/14 03:49:18;;;;;;;13.20;9.07;;;;;;;16.17;100.00;97047.38;5032805;28;20044;-66
2023/09/14 03:51:44;;;;;;;12.10;8.07;;;;;;;16.02;100.00;97047.38;5039076;28;20397;-68
2023/09/14 03:54:09;;;;;;;11.48;7.93;;;;;;;16.00;100.00;97043.44;5030540;28;20045;-68
2023/09/14 03:56:35;;;;;;;18.02;9.88;;;;;;;15.96;100.00;97046.22;5035572;28;20042;-68
2023/09/14 03:59:01;;;;;;;13.60;8.73;;;;;;;15.92;100.00;97039.09;5040456;28;20075;-67
2023/09/14 04:01:26;;;;;;;15.00;9.77;;;;;;;15.94;100.00;97039.50;5024472;28;20038;-67
2023/09/14 04:03:52;;;;;;;13.02;8.60;;;;;;;16.03;100.00;97045.44;5041795;28;20041;-67
2023/09/14 04:06:17;;;;;;;13.32;9.65;;;;;;;16.10;100.00;97039.91;5025888;28;20055;-66
2023/09/14 04:08:42;;;;;;;14.98;9.82;;;;;;;16.07;100.00;97039.91;5045583;28;20033;-65
2023/09/14 04:11:09;;;;;;;12.77;9.27;;;;;;;16.08;100.00;97039.53;5026409;28;20583;-67
2023/09/14 04:13:35;;;;;;;16.33;9.07;;;;;;;16.17;100.00;97036.34;5039719;28;20110;-66
2023/09/14 04:16:02;;;;;;;16.92;9.63;;;;;;;16.29;100.00;97037.91;5035296;28;20520;-67
2023/09/14 04:18:29;;;;;;;12.70;9.70;;;;;;;16.33;100.00;97027.63;5024748;28;20053;-67
2023/09/14 04:20:54;;;;;;;11.95;9.18;;;;;;;16.29;100.00;97037.91;5045540;28;20037;-67
2023/09/14 04:23:20;;;;;;;15.10;9.50;;;;;;;16.27;100.00;97021.72;5036906;28;20527;-67
2023/09/14 04:25:47;;;;;;;14.85;9.45;;;;;;;16.29;100.00;97029.63;5036157;28;20136;-66
2023/09/14 04:28:13;;;;;;;12.35;9.85;;;;;;;16.24;100.00;97033.56;5037839;28;20399;-67
2023/09/14 04:30:48;;;;;;;15.05;9.43;;;;;;;16.17;100.00;97039.91;5043568;28;20072;-67
2023/09/14 04:33:15;;;;;;;13.23;8.82;;;;;;;16.14;100.00;97037.16;5030217;28;20048;-67
2023/09/14 04:35:41;;;;;;;16.10;9.75;;;;;;;16.13;100.00;97043.84;5036167;28;20037;-66
2023/09/14 04:38:07;;;;;;;19.50;10.48;;;;;;;16.07;100.00;97035.16;5040217;28;20072;-66
2023/09/14 04:40:43;;;;;;;12.07;9.68;;;;;;;16.07;100.00;97037.16;5035423;28;20041;-65
2023/09/14 04:43:10;;;;;;;18.83;10.25;;;;;;;16.10;100.00;97034.38;5032382;28;20512;-67
2023/09/14 04:45:35;;;;;;;15.63;9.85;;;;;;;16.12;100.00;97040.31;5032653;28;20051;-67
2023/09/14 04:48:00;;;;;;;13.77;10.23;;;;;;;16.11;100.00;97046.22;5026279;28;20038;-67
2023/09/14 04:50:26;;;;;;;19.50;10.00;;;;;;;16.08;100.00;97044.22;5026051;28;20041;-67
2023/09/14 04:52:52;;;;;;;18.58;10.20;;;;;;;16.00;100.00;97041.47;5045188;28;20062;-67
2023/09/14 04:55:18;;;;;;;18.77;11.07;;;;;;;15.97;100.00;97045.03;5043750;28;20041;-67
2023/09/14 04:57:43;;;;;;;16.55;11.65;;;;;;;15.93;100.00;97047.00;5037851;28;20046;-67
2023/09/14 05:00:09;;;;;;;13.95;10.35;;;;;;;15.86;100.00;97045.03;5037199;28;20033;-66
2023/09/14 05:02:35;;;;;;;15.52;10.10;;;;;;;15.90;100.00;97047.78;5032793;28;20041;-68
2023/09/14 05:05:06;;;;;;;16.33;11.10;;;;;;;15.90;100.00;97045.03;5041206;28;20148;-66
2023/09/14 05:07:32;;;;;;;19.38;11.13;;;;;;;15.86;100.00;97047.78;5035267;28;20471;-68
2023/09/14 05:09:57;;;;;;;13.85;10.88;;;;;;;15.84;100.00;97049.34;5041667;28;20131;-68
2023/09/14 05:12:23;;;;;;;13.55;10.60;;;;;;;15.84;100.00;97047.38;5036491;28;20091;-68
2023/09/14 05:14:48;;;;;;;19.95;11.25;;;;;;;15.91;100.00;97048.56;5041050;28;20388;-68
2023/09/14 05:17:14;;;;;;;15.25;10.90;;;;;;;15.86;100.00;97045.03;5030151;28;20544;-68
2023/09/14 05:19:43;;;;;;;19.33;11.85;;;;;;;15.85;100.00;97048.19;5042717;28;20515;-67
2023/09/14 05:22:09;;;;;;;15.20;11.57;;;;;;;15.86;100.00;97052.50;5035556;28;20604;-66
2023/09/14 05:24:34;;;;;;;17.13;11.43;;;;;;;15.98;100.00;97057.66;5046348;28;20136;-67
2023/09/14 05:27:00;;;;;;;21.60;13.30;;;;;;;16.11;100.00;97054.50;5036906;28;20122;-66
2023/09/14 05:29:26;;;;;;;18.48;11.00;;;;;;;16.25;100.00;97058.03;5026994;28;20403;-67
2023/09/14 05:31:52;;;;;;;14.57;10.88;;;;;;;16.31;100.00;97060.41;5055715;28;20041;-66
2023/09/14 05:34:17;;;;;;;14.80;11.45;;;;;;;16.28;100.00;97059.25;5042658;28;20135;-66
2023/09/14 05:36:43;;;;;;;16.92;11.95;;;;;;;16.32;100.00;97054.50;5042466;28;20522;-67
2023/09/14 05:39:08;;;;;;;13.73;10.80;;;;;;;16.34;100.00;97063.19;5035726;28;20070;-66
2023/09/14 05:41:34;;;;;;;14.02;11.88;;;;;;;16.33;100.00;97060.81;5038059;28;20093;-68
2023/09/14 05:44:00;;;;;;;44.28;29.83;;;;;;;16.36;100.00;97063.56;5045104;28;20523;-69
2023/09/14 05:46:26;;;;;;;16.40;10.23;;;;;;;15.96;100.00;97070.28;5033280;28;20045;-69
2023/09/14 05:48:51;;;;;;;16.92;10.98;;;;;;;15.73;100.00;97068.63;5043186;28;20484;-66
2023/09/14 05:51:17;;;;;;;18.63;12.75;;;;;;;15.49;100.00;97072.94;5040063;28;20037;-68
2023/09/14 05:53:42;;;;;;;26.08;14.77;;;;;;;15.47;100.00;97076.06;5044079;28;20377;-68
2023/09/14 05:56:07;;;;;;;23.33;15.63;;;;;;;15.45;100.00;97083.97;5039242;28;20463;-68
2023/09/14 05:58:33;;;;;;;26.95;15.90;;;;;;;15.49;100.00;97082.00;5042511;28;20056;-68
2023/09/14 06:01:00;;;;;;;24.45;16.17;;;;;;;15.45;100.00;97080.41;5043106;28;20098;-67
2023/09/14 06:03:26;;;;;;;26.73;18.15;;;;;;;15.52;100.00;97085.16;5038431;28;20493;-68
2023/09/14 06:05:51;;;;;;;26.73;17.30;;;;;;;15.70;100.00;97090.72;5040041;28;20125;-68
2023/09/14 06:08:16;;;;;;;25.67;16.73;;;;;;;15.75;100.00;97088.38;5029574;28;20038;-68
2023/09/14 06:10:42;;;;;;;24.88;16.40;;;;;;;15.78;100.00;97082.09;5036583;28;20041;-67
2023/09/14 06:13:07;;;;;;;27.25;18.20;;;;;;;15.68;100.00;97083.63;5025882;28;20094;-70
2023/09/14 06:15:33;;;;;;;22.30;15.60;;;;;;;15.65;100.00;97089.94;5036262;28;20375;-68
2023/09/14 06:17:58;;;;;;;24.42;17.20;;;;;;;15.55;100.00;97081.63;5044030;28;20041;-68
2023/09/14 06:20:24;;;;;;;24.75;16.58;;;;;;;15.73;100.00;97090.72;5040943;28;20511;-68
2023/09/14 06:22:49;;;;;;;22.52;15.73;;;;;;;15.71;100.00;97087.56;5044256;28;20118;-68
2023/09/14 06:25:15;;;;;;;22.40;15.40;;;;;;;15.90;100.00;97092.00;5030596;28;20049;-68
2023/09/14 06:27:40;;;;;;;21.92;15.20;;;;;;;15.70;100.00;97083.25;5033731;28;20416;-68
2023/09/14 06:30:06;;;;;;;21.60;15.43;;;;;;;15.52;100.00;97082.38;5034970;28;20124;-68
2023/09/14 06:32:32;;;;;;;22.77;16.65;;;;;;;15.42;100.00;97081.97;5036275;28;20113;-68
2023/09/14 06:34:57;;;;;;;24.40;16.77;;;;;;;15.46;100.00;97085.53;5044498;28;20543;-68
2023/09/14 06:37:23;;;;;;;23.88;16.27;;;;;;;15.38;100.00;97089.44;5039838;28;20052;-68
2023/09/14 06:39:48;;;;;;;25.65;15.77;;;;;;;15.41;100.00;97096.97;5043325;28;20045;-68
2023/09/14 06:42:13;;;;;;;22.08;16.02;;;;;;;15.45;100.00;97091.47;5039014;28;20033;-68
2023/09/14 06:44:39;;;;;;;25.33;16.85;;;;;;;15.41;100.00;97094.19;5042780;28;20056;-68
2023/09/14 06:47:04;;;;;;;29.25;17.50;;;;;;;15.45;100.00;97099.75;5032879;28;20484;-66
2023/09/14 06:49:30;;;;;;;26.80;18.33;;;;;;;15.42;100.00;97092.22;5033651;28;20045;-68
2023/09/14 06:51:56;;;;;;;27.30;17.73;;;;;;;15.40;100.00;97089.06;5043642;28;20052;-68
2023/09/14 06:54:21;;;;;;;25.50;17.95;;;;;;;15.47;100.00;97094.63;5029864;28;20499;-67
2023/09/14 06:56:47;;;;;;;30.67;18.77;;;;;;;15.44;100.00;97093.41;5043299;28;20041;-68
2023/09/14 06:59:12;;;;;;;27.83;18.05;;;;;;;15.52;100.00;97093.44;5031191;28;20041;-68
2023/09/14 07:01:38;;;;;;;33.05;19.70;;;;;;;15.61;100.00;97093.84;5043607;28;20102;-69
2023/09/14 07:04:03;;;;;;;26.30;19.45;;;;;;;15.74;100.00;97086.00;5040615;28;20491;-67
2023/09/14 07:06:29;;;;;;;25.20;18.02;;;;;;;16.00;100.00;97093.19;5037164;28;20114;-68
2023/09/14 07:08:54;;;;;;;24.08;16.27;;;;;;;16.33;100.00;97088.44;5043256;28;20053;-70
2023/09/14 07:11:20;;;;;;;23.48;15.95;;;;;;;16.53;100.00;97097.94;5035496;28;20097;-68
2023/09/14 07:13:45;;;;;;;20.90;15.57;;;;;;;16.65;100.00;97099.50;5041859;28;20423;-68
2023/09/14 07:16:10;;;;;;;21.73;14.93;;;;;;;17.04;100.00;97097.88;5039188;28;20033;-69
2023/09/14 07:18:36;;;;;;;20.55;14.68;;;;;;;17.26;100.00;97104.91;5047244;28;20084;-69
2023/09/14 07:21:02;;;;;;;22.30;15.05;;;;;;;17.39;100.00;97106.06;5043834;28;20430;-68
2023/09/14 07:23:28;;;;;;;17.65;12.85;;;;;;;17.76;100.00;97101.13;5038569;28;20489;-68
2023/09/14 07:25:54;;;;;;;19.65;14.32;;;;;;;17.70;100.00;97105.50;5034093;28;20045;-68
2023/09/14 07:28:21;;;;;;;18.38;13.20;;;;;;;17.96;100.00;97110.53;5036031;28;20099;-69
2023/09/14 07:30:48;;;;;;;20.25;14.32;;;;;;;17.94;100.00;97109.38;5043491;28;20041;-67
2023/09/14 07:33:14;;;;;;;20.75;13.20;;;;;;;18.32;100.00;97115.03;5036811;28;20128;-69
2023/09/14 07:35:39;;;;;;;19.63;14.30;;;;;;;17.93;100.00;97116.09;5043116;28;20191;-69
2023/09/14 07:38:08;;;;;;;21.98;13.43;;;;;;;17.87;100.00;97123.25;5029673;28;20127;-66
2023/09/14 07:40:33;;;;;;;20.60;14.77;;;;;;;17.89;100.00;97120.88;5043175;28;20065;-69
2023/09/14 07:42:59;;;;;;;21.10;14.57;;;;;;;18.18;100.00;97124.25;5041398;28;20463;-69
2023/09/14 07:45:24;;;;;;;21.02;15.77;;;;;;;17.43;100.00;97124.63;5037003;28;20045;-69
2023/09/14 07:47:50;;;;;;;25.40;16.70;;;;;;;17.38;100.00;97125.84;5036434;28;20044;-68
2023/09/14 07:50:15;;;;;;;23.15;15.68;;;;;;;17.72;100.00;97123.31;5037628;28;20072;-69
2023/09/14 07:52:41;;;;;;;22.17;16.00;;;;;;;17.73;100.00;97130.41;5042525;28;20045;-69
2023/09/14 07:55:07;;;;;;;18.83;14.52;;;;;;;18.10;100.00;97131.03;5037915;28;20132;-68
2023/09/14 07:57:32;;;;;;;20.90;13.90;;;;;;;18.82;100.00;97116.63;5025004;28;20053;-69
2023/09/14 07:59:57;;;;;;;19.60;14.05;;;;;;;19.44;100.00;97125.88;5038199;28;20060;-68
2023/09/14 08:02:24;;;;;;;20.40;14.13;;;;;;;19.00;100.00;97127.56;5031678;28;20547;-69
2023/09/14 08:04:49;;;;;;;23.38;15.95;;;;;;;17.77;100.00;97128.44;5044837;28;20045;-69
2023/09/14 08:07:15;;;;;;;20.83;14.40;;;;;;;18.36;100.00;97134.41;5046721;28;20083;-68
2023/09/14 08:09:41;;;;;;;25.88;16.55;;;;;;;17.69;100.00;97126.88;5038276;28;20041;-69
2023/09/14 08:12:06;;;;;;;22.55;16.38;;;;;;;17.69;100.00;97126.88;5037711;28;20439;-66
2023/09/14 08:14:31;;;;;;;26.42;17.10;;;;;;;17.38;100.00;97134.91;5041444;28;20068;-68
2023/09/14 08:16:57;;;;;;;26.98;17.88;;;;;;;17.50;100.00;97130.94;5041980;28;20510;-69
2023/09/14 08:19:22;;;;;;;25.88;18.02;;;;;;;17.31;100.00;97134.94;5035081;28;20112;-69
2023/09/14 08:21:48;;;;;;;25.15;17.35;;;;;;;17.78;100.00;97148.59;5042317;28;20497;-69
2023/09/14 08:24:13;;;;;;;27.63;18.00;;;;;;;17.38;100.00;97137.69;5029028;28;20045;-68
2023/09/14 08:26:39;;;;;;;27.13;18.70;;;;;;;17.34;100.00;97134.16;5026130;28;20065;-69
2023/09/14 08:29:04;;;;;;;28.90;19.55;;;;;;;17.37;100.00;97138.88;5032366;28;20429;-67
2023/09/14 08:31:29;;;;;;;28.40;18.58;;;;;;;17.46;100.00;97137.66;5036931;28;20037;-68
2023/09/14 08:33:55;;;;;;;31.35;20.13;;;;;;;17.24;100.00;97137.75;5042073;28;20063;-69
2023/09/14 08:36:21;;;;;;;35.00;21.80;;;;;;;17.09;100.00;97136.22;5028210;28;20125;-68
2023/09/14 08:38:46;;;;;;;37.63;23.15;;;;;;;16.94;100.00;97139.00;5041066;28;20470;-69
2023/09/14 08:41:21;;;;;;;34.50;22.00;;;;;;;16.94;100.00;97139.00;5034468;28;20120;-69
2023/09/14 08:43:48;;;;;;;32.38;21.50;;;;;;;17.18;100.00;97140.13;5036749;28;20487;-68
2023/09/14 08:46:17;;;;;;;31.20;19.80;;;;;;;17.22;100.00;97147.66;5029540;28;20368;-67
2023/09/14 08:48:45;;;;;;;29.67;19.33;;;;;;;17.44;100.00;97149.13;5040927;28;20788;-67
2023/09/14 08:51:11;;;;;;;30.65;19.77;;;;;;;17.48;100.00;97144.38;5034248;28;20033;-67
2023/09/14 08:53:38;;;;;;;33.38;20.88;;;;;;;17.36;100.00;97151.16;5041130;28;20041;-68
2023/09/14 08:56:05;;;;;;;31.80;19.45;;;;;;;17.17;100.00;97138.53;5038528;28;20060;-65
2023/09/14 08:58:32;;;;;;;29.30;20.08;;;;;;;17.34;100.00;97136.13;5041311;28;20037;-68
2023/09/14 09:00:58;;;;;;;30.17;19.02;;;;;;;17.49;100.00;97137.66;5053963;28;20037;-69
2023/09/14 09:03:23;;;;;;;28.98;19.65;;;;;;;17.51;100.00;97126.19;5049820;28;20045;-69
2023/09/14 09:05:49;;;;;;;26.60;17.83;;;;;;;17.54;100.00;97125.38;5054130;28;20110;-69
2023/09/14 09:08:17;;;;;;;26.58;18.00;;;;;;;17.77;100.00;97127.63;5050396;28;20124;-67
2023/09/14 09:10:43;;;;;;;26.25;17.55;;;;;;;18.06;100.00;97125.53;5048149;28;20041;-68
2023/09/14 09:13:09;;;;;;;25.17;16.92;;;;;;;18.45;100.00;97120.88;5047323;28;20040;-68
2023/09/14 09:15:37;;;;;;;24.77;16.42;;;;;;;18.97;100.00;97129.16;5042115;28;20047;-67
2023/09/14 09:18:12;;;;;;;26.00;16.77;;;;;;;18.61;100.00;97131.44;5039944;28;20033;-68
2023/09/14 09:20:45;;;;;;;22.77;16.00;;;;;;;19.37;100.00;97134.28;5033289;28;20059;-68
2023/09/14 09:23:14;;;;;;;24.40;16.40;;;;;;;19.34;100.00;97132.31;5040296;28;20041;-67
2023/09/14 09:25:50;;;;;;;22.75;14.40;;;;;;;19.74;100.00;97133.47;5051674;28;20072;-68
2023/09/14 09:28:15;;;;;;;19.27;15.07;;;;;;;19.97;100.00;97140.28;5040315;28;20044;-68
2023/09/14 09:30:41;;;;;;;23.60;14.73;;;;;;;20.40;100.00;97140.47;5041784;28;20079;-67
2023/09/14 09:33:07;;;;;;;21.23;13.32;;;;;;;20.49;100.00;97133.56;5038954;28;20519;-69
2023/09/14 09:35:36;;;;;;;21.50;14.80;;;;;;;19.42;100.00;97129.06;5050079;28;20037;-67
2023/09/14 09:38:15;;;;;;;21.50;15.20;;;;;;;18.98;100.00;97133.53;5047948;28;20361;-66
2023/09/14 09:40:43;;;;;;;23.90;14.25;;;;;;;19.92;100.00;97132.44;5047348;28;20079;-65
2023/09/14 09:43:09;;;;;;;21.80;15.68;;;;;;;19.61;100.00;97133.22;5047152;28;20324;-67
2023/09/14 09:45:40;;;;;;;22.08;13.13;;;;;;;19.85;100.00;97134.09;5051618;28;20201;-67
2023/09/14 09:48:09;;;;;;;20.20;13.65;;;;;;;19.94;100.00;97122.47;5031477;28;20056;-66
2023/09/14 09:50:35;;;;;;;23.63;13.80;;;;;;;20.53;100.00;97123.19;5039666;28;20037;-68
2023/09/14 09:53:00;;;;;;;20.23;13.60;;;;;;;20.54;100.00;97127.53;5039744;28;20033;-68
2023/09/14 09:55:28;;;;;;;17.40;12.45;;;;;;;22.18;100.00;97127.56;5035668;28;20068;-66
2023/09/14 09:57:59;;;;;;;18.83;11.30;;;;;;;22.14;100.00;97127.66;5039993;28;20040;-67
2023/09/14 10:00:36;;;;;;;16.42;11.57;;;;;;;24.90;85.66;97133.19;5034029;28;20080;-68
2023/09/14 10:03:03;;;;;;;20.77;12.38;;;;;;;23.89;79.79;97134.75;5039039;28;20041;-67
2023/09/14 10:05:33;;;;;;;16.88;11.85;;;;;;;22.77;95.05;97125.81;5037705;28;20115;-68
2023/09/14 10:08:02;;;;;;;16.38;10.75;;;;;;;22.05;100.00;97122.66;5040209;28;20115;-68
2023/09/14 10:10:33;;;;;;;19.77;13.23;;;;;;;21.14;100.00;97114.56;5037542;28;20095;-67
2023/09/14 10:12:59;;;;;;;18.20;12.20;;;;;;;21.03;100.00;97107.63;5040830;28;20442;-67
2023/09/14 10:15:26;;;;;;;17.27;12.73;;;;;;;20.41;100.00;97105.09;5037092;28;20087;-67
2023/09/14 10:17:57;;;;;;;21.52;12.48;;;;;;;19.98;100.00;97098.19;5040210;28;20094;-67
2023/09/14 10:20:23;;;;;;;19.17;13.48;;;;;;;19.98;100.00;97095.41;5035072;28;20328;-67
2023/09/14 10:22:50;;;;;;;16.70;12.65;;;;;;;20.14;100.00;97089.22;5039647;28;20033;-68
2023/09/14 10:25:16;;;;;;;19.52;12.43;;;;;;;20.70;100.00;97097.06;5035372;28;20045;-67
2023/09/14 10:27:42;;;;;;;16.98;12.10;;;;;;;21.17;100.00;97094.19;5039742;28;20061;-67
2023/09/14 10:30:22;;;;;;;17.58;12.32;;;;;;;21.27;100.00;97095.22;5034896;28;20115;-66
2023/09/14 10:32:49;;;;;;;15.07;10.98;;;;;;;21.80;99.88;97086.19;5031783;28;20045;-68
2023/09/14 10:35:17;;;;;;;17.27;11.32;;;;;;;22.52;93.25;97090.91;5039895;28;20086;-67
2023/09/14 10:37:45;;;;;;;14.52;10.05;;;;;;;24.85;76.96;97094.53;5042588;28;20033;-67
2023/09/14 10:40:12;;;;;;;13.00;9.23;;;;;;;24.55;76.87;97091.13;5028145;28;20037;-70
2023/09/14 10:42:39;;;;;;;15.40;9.10;;;;;;;25.31;74.01;97089.31;5026920;28;20064;-68
2023/09/14 10:45:05;;;;;;;15.52;10.60;;;;;;;23.32;83.85;97079.25;5038350;28;20072;-65
2023/09/14 10:47:36;;;;;;;12.38;9.93;;;;;;;23.67;81.46;97077.41;5034324;28;20431;-68
2023/09/14 10:50:06;;;;;;;14.30;9.80;;;;;;;22.01;96.02;97076.56;5040859;28;20094;-66
2023/09/14 10:52:33;;;;;;;16.35;10.82;;;;;;;21.76;98.59;97066.75;5042927;28;20037;-69
2023/09/14 10:54:59;;;;;;;20.75;10.48;;;;;;;21.32;98.77;97066.06;5037276;28;20053;-69
2023/09/14 10:57:28;;;;;;;17.40;11.07;;;;;;;21.02;99.63;97059.50;5035688;28;20037;-67
2023/09/14 10:59:58;;;;;;;14.52;10.45;;;;;;;21.55;100.00;97060.47;5043518;28;20087;-68
2023/09/14 11:02:39;;;;;;;15.88;10.70;;;;;;;21.64;99.47;97064.63;5038850;28;20424;-68
2023/09/14 11:05:23;;;;;;;14.70;10.82;;;;;;;22.04;97.23;97056.97;5038153;28;20122;-68
2023/09/14 11:08:00;;;;;;;16.45;10.98;;;;;;;21.67;98.03;97061.78;5043006;28;20040;-69
2023/09/14 11:10:27;;;;;;;17.95;10.73;;;;;;;21.34;100.00;97060.88;5038337;28;20395;-69
2023/09/14 11:13:19;;;;;;;12.95;8.82;;;;;;;22.09;99.55;97058.44;5042949;28;20036;-70